sensor_id;sensor_type;location;lat;lon;timestamp;temperature;humidity
52919;DHT22;38793;52.690;6.812;2024-01-25T00:00:53;7.60;99.90
52919;DHT22;38793;52.690;6.812;2024-01-25T00:03:18;7.60;99.90
52919;DHT22;38793;52.690;6.812;2024-01-25T00:05:44;7.60;99.90
52919;DHT22;38793;52.690;6.812;2024-01-25T00:08:09;7.60;99.90
52919;DHT22;38793;52.690;6.812;2024-01-25T00:10:35;7.70;99.90
52919;DHT22;38793;52.690;6.812;2024-01-25T00:13:01;7.70;99.90
52919;DHT22;38793;52.690;6.812;2024-01-25T00:15:27;7.70;99.90
52919;DHT22;38793;52.690;6.812;2024-01-25T00:17:52;7.70;99.90
52919;DHT22;38793;52.690;6.812;2024-01-25T00:20:18;7.70;99.90
52919;DHT22;38793;52.690;6.812;2024-01-25T00:22:43;7.70;99.90
52919;DHT22;38793;52.690;6.812;2024-01-25T00:25:09;7.70;99.90
52919;DHT22;38793;52.690;6.812;2024-01-25T00:27:35;7.80;99.90
52919;DHT22;38793;52.690;6.812;2024-01-25T00:30:00;7.70;99.90
52919;DHT22;38793;52.690;6.812;2024-01-25T00:32:26;7.70;99.90
52919;DHT22;38793;52.690;6.812;2024-01-25T00:34:52;7.60;99.90
52919;DHT22;38793;52.690;6.812;2024-01-25T00:37:18;7.60;99.90
52919;DHT22;38793;52.690;6.812;2024-01-25T00:39:44;7.60;99.90
52919;DHT22;38793;52.690;6.812;2024-01-25T00:42:12;7.60;99.90
52919;DHT22;38793;52.690;6.812;2024-01-25T00:44:38;7.50;99.90
52919;DHT22;38793;52.690;6.812;2024-01-25T00:47:04;7.50;99.90
52919;DHT22;38793;52.690;6.812;2024-01-25T00:49:30;7.40;99.90
52919;DHT22;38793;52.690;6.812;2024-01-25T00:51:59;7.40;99.90
52919;DHT22;38793;52.690;6.812;2024-01-25T00:54:28;7.40;99.90
52919;DHT22;38793;52.690;6.812;2024-01-25T00:56:54;7.40;99.90
52919;DHT22;38793;52.690;6.812;2024-01-25T00:59:20;7.30;99.90
52919;DHT22;38793;52.690;6.812;2024-01-25T01:01:46;7.30;99.90
52919;DHT22;38793;52.690;6.812;2024-01-25T01:04:12;7.30;99.90
52919;DHT22;38793;52.690;6.812;2024-01-25T01:06:38;7.20;99.90
52919;DHT22;38793;52.690;6.812;2024-01-25T01:09:04;7.30;99.90
52919;DHT22;38793;52.690;6.812;2024-01-25T01:11:30;7.20;99.90
52919;DHT22;38793;52.690;6.812;2024-01-25T01:13:55;7.10;99.90
52919;DHT22;38793;52.690;6.812;2024-01-25T01:16:21;7.10;99.90
52919;DHT22;38793;52.690;6.812;2024-01-25T01:18:47;7.00;99.90
52919;DHT22;38793;52.690;6.812;2024-01-25T01:21:12;6.90;99.90
52919;DHT22;38793;52.690;6.812;2024-01-25T01:23:38;6.80;99.90
52919;DHT22;38793;52.690;6.812;2024-01-25T01:26:04;6.70;99.90
52919;DHT22;38793;52.690;6.812;2024-01-25T01:28:30;6.60;99.90
52919;DHT22;38793;52.690;6.812;2024-01-25T01:30:55;6.50;99.90
52919;DHT22;38793;52.690;6.812;2024-01-25T01:33:21;6.50;99.90
52919;DHT22;38793;52.690;6.812;2024-01-25T01:35:46;6.40;99.90
52919;DHT22;38793;52.690;6.812;2024-01-25T01:38:12;6.30;99.90
52919;DHT22;38793;52.690;6.812;2024-01-25T01:40:38;6.30;99.90
52919;DHT22;38793;52.690;6.812;2024-01-25T01:43:03;6.30;99.90
52919;DHT22;38793;52.690;6.812;2024-01-25T01:45:29;6.20;99.90
52919;DHT22;38793;52.690;6.812;2024-01-25T01:47:55;6.20;99.90
52919;DHT22;38793;52.690;6.812;2024-01-25T01:50:21;6.10;99.90
52919;DHT22;38793;52.690;6.812;2024-01-25T01:52:48;6.20;99.90
52919;DHT22;38793;52.690;6.812;2024-01-25T01:55:15;6.10;99.90
52919;DHT22;38793;52.690;6.812;2024-01-25T01:57:41;6.10;99.90
52919;DHT22;38793;52.690;6.812;2024-01-25T02:00:08;6.10;99.90
52919;DHT22;38793;52.690;6.812;2024-01-25T02:02:35;6.00;99.90
52919;DHT22;38793;52.690;6.812;2024-01-25T02:05:00;6.00;99.90
52919;DHT22;38793;52.690;6.812;2024-01-25T02:07:26;6.00;99.90
52919;DHT22;38793;52.690;6.812;2024-01-25T02:09:52;5.90;99.90
52919;DHT22;38793;52.690;6.812;2024-01-25T02:12:18;5.90;99.90
52919;DHT22;38793;52.690;6.812;2024-01-25T02:14:43;5.80;99.90
52919;DHT22;38793;52.690;6.812;2024-01-25T02:17:09;5.80;99.90
52919;DHT22;38793;52.690;6.812;2024-01-25T02:19:35;5.80;99.90
52919;DHT22;38793;52.690;6.812;2024-01-25T02:22:01;5.80;99.90
52919;DHT22;38793;52.690;6.812;2024-01-25T02:24:28;5.80;99.90
52919;DHT22;38793;52.690;6.812;2024-01-25T02:26:53;5.80;99.90
52919;DHT22;38793;52.690;6.812;2024-01-25T02:29:19;5.80;99.90
52919;DHT22;38793;52.690;6.812;2024-01-25T02:31:45;5.70;99.90
52919;DHT22;38793;52.690;6.812;2024-01-25T02:34:11;5.70;99.90
52919;DHT22;38793;52.690;6.812;2024-01-25T02:36:36;5.70;99.90
52919;DHT22;38793;52.690;6.812;2024-01-25T02:39:02;5.70;99.90
52919;DHT22;38793;52.690;6.812;2024-01-25T02:41:30;5.70;99.90
52919;DHT22;38793;52.690;6.812;2024-01-25T02:43:56;5.70;99.90
52919;DHT22;38793;52.690;6.812;2024-01-25T02:46:22;5.70;99.90
52919;DHT22;38793;52.690;6.812;2024-01-25T02:48:47;5.70;99.90
52919;DHT22;38793;52.690;6.812;2024-01-25T02:51:13;5.70;99.90
52919;DHT22;38793;52.690;6.812;2024-01-25T02:53:39;5.70;99.90
52919;DHT22;38793;52.690;6.812;2024-01-25T02:56:05;5.60;99.90
52919;DHT22;38793;52.690;6.812;2024-01-25T02:58:31;5.60;99.90
52919;DHT22;38793;52.690;6.812;2024-01-25T03:00:57;5.60;99.90
52919;DHT22;38793;52.690;6.812;2024-01-25T03:03:22;5.50;99.90
52919;DHT22;38793;52.690;6.812;2024-01-25T03:05:50;5.50;99.90
52919;DHT22;38793;52.690;6.812;2024-01-25T03:08:16;5.40;99.90
52919;DHT22;38793;52.690;6.812;2024-01-25T03:10:41;5.40;99.90
52919;DHT22;38793;52.690;6.812;2024-01-25T03:13:07;5.40;99.90
52919;DHT22;38793;52.690;6.812;2024-01-25T03:15:33;5.40;99.90
52919;DHT22;38793;52.690;6.812;2024-01-25T03:17:58;5.30;99.90
52919;DHT22;38793;52.690;6.812;2024-01-25T03:20:24;5.30;99.90
52919;DHT22;38793;52.690;6.812;2024-01-25T03:22:50;5.30;99.90
52919;DHT22;38793;52.690;6.812;2024-01-25T03:25:15;5.30;99.90
52919;DHT22;38793;52.690;6.812;2024-01-25T03:27:41;5.30;99.90
52919;DHT22;38793;52.690;6.812;2024-01-25T03:30:07;5.20;99.90
52919;DHT22;38793;52.690;6.812;2024-01-25T03:32:33;5.30;99.90
52919;DHT22;38793;52.690;6.812;2024-01-25T03:34:59;5.30;99.90
52919;DHT22;38793;52.690;6.812;2024-01-25T03:37:25;5.20;99.90
52919;DHT22;38793;52.690;6.812;2024-01-25T03:39:50;5.20;99.90
52919;DHT22;38793;52.690;6.812;2024-01-25T03:42:16;5.20;99.90
52919;DHT22;38793;52.690;6.812;2024-01-25T03:44:42;5.20;99.90
52919;DHT22;38793;52.690;6.812;2024-01-25T03:47:08;5.20;99.90
52919;DHT22;38793;52.690;6.812;2024-01-25T03:49:34;5.20;99.90
52919;DHT22;38793;52.690;6.812;2024-01-25T03:51:59;5.20;99.90
52919;DHT22;38793;52.690;6.812;2024-01-25T03:54:25;5.20;99.90
52919;DHT22;38793;52.690;6.812;2024-01-25T03:56:51;5.20;99.90
52919;DHT22;38793;52.690;6.812;2024-01-25T03:59:16;5.20;99.90
52919;DHT22;38793;52.690;6.812;2024-01-25T04:01:45;5.20;99.90
52919;DHT22;38793;52.690;6.812;2024-01-25T04:04:13;5.10;99.90
52919;DHT22;38793;52.690;6.812;2024-01-25T04:06:42;5.10;99.90
52919;DHT22;38793;52.690;6.812;2024-01-25T04:09:08;5.00;99.90
52919;DHT22;38793;52.690;6.812;2024-01-25T04:11:34;5.00;99.90
52919;DHT22;38793;52.690;6.812;2024-01-25T04:14:00;5.00;99.90
52919;DHT22;38793;52.690;6.812;2024-01-25T04:16:26;4.90;99.90
52919;DHT22;38793;52.690;6.812;2024-01-25T04:18:52;4.90;99.90
52919;DHT22;38793;52.690;6.812;2024-01-25T04:21:17;4.80;99.90
52919;DHT22;38793;52.690;6.812;2024-01-25T04:23:43;4.80;99.90
52919;DHT22;38793;52.690;6.812;2024-01-25T04:26:08;4.70;99.90
52919;DHT22;38793;52.690;6.812;2024-01-25T04:28:34;4.70;99.90
52919;DHT22;38793;52.690;6.812;2024-01-25T04:31:01;4.60;99.90
52919;DHT22;38793;52.690;6.812;2024-01-25T04:33:27;4.60;99.90
52919;DHT22;38793;52.690;6.812;2024-01-25T04:35:52;4.60;99.90
52919;DHT22;38793;52.690;6.812;2024-01-25T04:38:18;4.60;99.90
52919;DHT22;38793;52.690;6.812;2024-01-25T04:40:44;4.50;99.90
52919;DHT22;38793;52.690;6.812;2024-01-25T04:43:09;4.50;99.90
52919;DHT22;38793;52.690;6.812;2024-01-25T04:45:35;4.50;99.90
52919;DHT22;38793;52.690;6.812;2024-01-25T04:48:00;4.50;99.90
52919;DHT22;38793;52.690;6.812;2024-01-25T04:50:26;4.50;99.90
52919;DHT22;38793;52.690;6.812;2024-01-25T04:52:51;4.50;99.90
52919;DHT22;38793;52.690;6.812;2024-01-25T04:55:17;4.40;99.90
52919;DHT22;38793;52.690;6.812;2024-01-25T04:57:43;4.40;99.90
52919;DHT22;38793;52.690;6.812;2024-01-25T05:00:10;4.40;99.90
52919;DHT22;38793;52.690;6.812;2024-01-25T05:02:35;4.40;99.90
52919;DHT22;38793;52.690;6.812;2024-01-25T05:05:01;4.40;99.90
52919;DHT22;38793;52.690;6.812;2024-01-25T05:07:26;4.40;99.90
52919;DHT22;38793;52.690;6.812;2024-01-25T05:09:52;4.40;99.90
52919;DHT22;38793;52.690;6.812;2024-01-25T05:12:18;4.40;99.90
52919;DHT22;38793;52.690;6.812;2024-01-25T05:14:43;4.40;99.90
52919;DHT22;38793;52.690;6.812;2024-01-25T05:17:09;4.40;99.90
52919;DHT22;38793;52.690;6.812;2024-01-25T05:19:35;4.40;99.90
52919;DHT22;38793;52.690;6.812;2024-01-25T05:22:00;4.40;99.90
52919;DHT22;38793;52.690;6.812;2024-01-25T05:24:32;4.30;99.90
52919;DHT22;38793;52.690;6.812;2024-01-25T05:26:58;4.30;99.90
52919;DHT22;38793;52.690;6.812;2024-01-25T05:29:23;4.30;99.90
52919;DHT22;38793;52.690;6.812;2024-01-25T05:31:49;4.20;99.90
52919;DHT22;38793;52.690;6.812;2024-01-25T05:34:15;4.20;99.90
52919;DHT22;38793;52.690;6.812;2024-01-25T05:36:41;4.20;99.90
52919;DHT22;38793;52.690;6.812;2024-01-25T05:39:07;4.10;99.90
52919;DHT22;38793;52.690;6.812;2024-01-25T05:41:33;4.10;99.90
52919;DHT22;38793;52.690;6.812;2024-01-25T05:43:59;4.10;99.90
52919;DHT22;38793;52.690;6.812;2024-01-25T05:46:25;4.10;99.90
52919;DHT22;38793;52.690;6.812;2024-01-25T05:48:51;4.10;99.90
52919;DHT22;38793;52.690;6.812;2024-01-25T05:51:17;4.10;99.90
52919;DHT22;38793;52.690;6.812;2024-01-25T05:53:43;4.00;99.90
52919;DHT22;38793;52.690;6.812;2024-01-25T05:56:09;4.00;99.90
52919;DHT22;38793;52.690;6.812;2024-01-25T05:58:34;4.00;99.90
52919;DHT22;38793;52.690;6.812;2024-01-25T06:01:00;3.90;99.90
52919;DHT22;38793;52.690;6.812;2024-01-25T06:03:26;4.00;99.90
52919;DHT22;38793;52.690;6.812;2024-01-25T06:05:51;3.90;99.90
52919;DHT22;38793;52.690;6.812;2024-01-25T06:08:17;3.90;99.90
52919;DHT22;38793;52.690;6.812;2024-01-25T06:10:42;3.90;99.90
52919;DHT22;38793;52.690;6.812;2024-01-25T06:13:08;3.80;99.90
52919;DHT22;38793;52.690;6.812;2024-01-25T06:15:34;3.80;99.90
52919;DHT22;38793;52.690;6.812;2024-01-25T06:18:00;3.80;99.90
52919;DHT22;38793;52.690;6.812;2024-01-25T06:20:26;3.80;99.90
52919;DHT22;38793;52.690;6.812;2024-01-25T06:22:51;3.80;99.90
52919;DHT22;38793;52.690;6.812;2024-01-25T06:25:17;3.70;99.90
52919;DHT22;38793;52.690;6.812;2024-01-25T06:27:43;3.70;99.90
52919;DHT22;38793;52.690;6.812;2024-01-25T06:30:09;3.70;99.90
52919;DHT22;38793;52.690;6.812;2024-01-25T06:32:35;3.70;99.90
52919;DHT22;38793;52.690;6.812;2024-01-25T06:35:00;3.70;99.90
52919;DHT22;38793;52.690;6.812;2024-01-25T06:37:26;3.60;99.90
52919;DHT22;38793;52.690;6.812;2024-01-25T06:39:52;3.50;99.90
52919;DHT22;38793;52.690;6.812;2024-01-25T06:42:17;3.50;99.90
52919;DHT22;38793;52.690;6.812;2024-01-25T06:44:44;3.40;99.90
52919;DHT22;38793;52.690;6.812;2024-01-25T06:47:09;3.40;99.90
52919;DHT22;38793;52.690;6.812;2024-01-25T06:49:35;3.40;99.90
52919;DHT22;38793;52.690;6.812;2024-01-25T06:52:01;3.40;99.90
52919;DHT22;38793;52.690;6.812;2024-01-25T06:54:27;3.50;99.90
52919;DHT22;38793;52.690;6.812;2024-01-25T06:56:52;3.50;99.90
52919;DHT22;38793;52.690;6.812;2024-01-25T06:59:18;3.50;99.90
52919;DHT22;38793;52.690;6.812;2024-01-25T07:01:43;3.60;99.90
52919;DHT22;38793;52.690;6.812;2024-01-25T07:04:09;3.50;99.90
52919;DHT22;38793;52.690;6.812;2024-01-25T07:06:35;3.60;99.90
52919;DHT22;38793;52.690;6.812;2024-01-25T07:09:00;3.60;99.90
52919;DHT22;38793;52.690;6.812;2024-01-25T07:11:26;3.60;99.90
52919;DHT22;38793;52.690;6.812;2024-01-25T07:13:51;3.60;99.90
52919;DHT22;38793;52.690;6.812;2024-01-25T07:16:17;3.60;99.90
52919;DHT22;38793;52.690;6.812;2024-01-25T07:18:44;3.60;99.90
52919;DHT22;38793;52.690;6.812;2024-01-25T07:21:10;3.60;99.90
52919;DHT22;38793;52.690;6.812;2024-01-25T07:23:36;3.60;99.90
52919;DHT22;38793;52.690;6.812;2024-01-25T07:26:02;3.60;99.90
52919;DHT22;38793;52.690;6.812;2024-01-25T07:28:27;3.60;99.90
52919;DHT22;38793;52.690;6.812;2024-01-25T07:30:53;3.70;99.90
52919;DHT22;38793;52.690;6.812;2024-01-25T07:33:19;3.70;99.90
52919;DHT22;38793;52.690;6.812;2024-01-25T07:35:44;3.70;99.90
52919;DHT22;38793;52.690;6.812;2024-01-25T07:38:16;3.70;99.90
52919;DHT22;38793;52.690;6.812;2024-01-25T07:40:42;3.70;99.90
52919;DHT22;38793;52.690;6.812;2024-01-25T07:43:08;3.70;99.90
52919;DHT22;38793;52.690;6.812;2024-01-25T07:45:34;3.80;99.90
52919;DHT22;38793;52.690;6.812;2024-01-25T07:47:59;3.80;99.90
52919;DHT22;38793;52.690;6.812;2024-01-25T07:50:25;3.90;99.90
52919;DHT22;38793;52.690;6.812;2024-01-25T07:52:51;3.90;99.90
52919;DHT22;38793;52.690;6.812;2024-01-25T07:55:17;4.00;99.90
52919;DHT22;38793;52.690;6.812;2024-01-25T07:57:42;4.20;99.90
52919;DHT22;38793;52.690;6.812;2024-01-25T08:00:09;4.30;99.90
52919;DHT22;38793;52.690;6.812;2024-01-25T08:02:37;4.40;99.90
52919;DHT22;38793;52.690;6.812;2024-01-25T08:05:07;4.40;99.90
52919;DHT22;38793;52.690;6.812;2024-01-25T08:07:33;4.50;99.90
52919;DHT22;38793;52.690;6.812;2024-01-25T08:09:59;4.60;99.90
52919;DHT22;38793;52.690;6.812;2024-01-25T08:12:25;4.60;99.90
52919;DHT22;38793;52.690;6.812;2024-01-25T08:14:51;4.60;99.90
52919;DHT22;38793;52.690;6.812;2024-01-25T08:17:16;4.70;99.90
52919;DHT22;38793;52.690;6.812;2024-01-25T08:19:42;4.80;99.90
52919;DHT22;38793;52.690;6.812;2024-01-25T08:22:08;4.80;99.90
52919;DHT22;38793;52.690;6.812;2024-01-25T08:24:35;4.90;99.90
52919;DHT22;38793;52.690;6.812;2024-01-25T08:27:01;4.90;99.90
52919;DHT22;38793;52.690;6.812;2024-01-25T08:29:26;5.00;99.90
52919;DHT22;38793;52.690;6.812;2024-01-25T08:31:52;5.00;99.90
52919;DHT22;38793;52.690;6.812;2024-01-25T08:34:18;5.10;99.90
52919;DHT22;38793;52.690;6.812;2024-01-25T08:36:43;5.10;99.90
52919;DHT22;38793;52.690;6.812;2024-01-25T08:39:09;5.20;99.90
52919;DHT22;38793;52.690;6.812;2024-01-25T08:41:35;5.10;99.90
52919;DHT22;38793;52.690;6.812;2024-01-25T08:44:00;5.10;99.90
52919;DHT22;38793;52.690;6.812;2024-01-25T08:46:26;5.10;99.90
52919;DHT22;38793;52.690;6.812;2024-01-25T08:48:52;5.10;99.90
52919;DHT22;38793;52.690;6.812;2024-01-25T08:51:17;5.10;99.90
52919;DHT22;38793;52.690;6.812;2024-01-25T08:53:43;5.10;99.90
52919;DHT22;38793;52.690;6.812;2024-01-25T08:56:09;5.10;99.90
52919;DHT22;38793;52.690;6.812;2024-01-25T08:58:35;5.20;99.90
52919;DHT22;38793;52.690;6.812;2024-01-25T09:01:00;5.20;99.90
52919;DHT22;38793;52.690;6.812;2024-01-25T09:03:26;5.20;99.90
52919;DHT22;38793;52.690;6.812;2024-01-25T09:05:52;5.30;99.90
52919;DHT22;38793;52.690;6.812;2024-01-25T09:08:17;5.40;99.90
52919;DHT22;38793;52.690;6.812;2024-01-25T09:10:43;5.50;99.90
52919;DHT22;38793;52.690;6.812;2024-01-25T09:13:10;5.60;99.90
52919;DHT22;38793;52.690;6.812;2024-01-25T09:15:36;5.70;99.90
52919;DHT22;38793;52.690;6.812;2024-01-25T09:18:02;5.80;99.90
52919;DHT22;38793;52.690;6.812;2024-01-25T09:20:28;5.90;99.90
52919;DHT22;38793;52.690;6.812;2024-01-25T09:22:53;6.00;99.90
52919;DHT22;38793;52.690;6.812;2024-01-25T09:25:20;6.20;99.90
52919;DHT22;38793;52.690;6.812;2024-01-25T09:27:46;6.30;99.90
52919;DHT22;38793;52.690;6.812;2024-01-25T09:30:12;6.40;99.90
52919;DHT22;38793;52.690;6.812;2024-01-25T09:32:37;6.60;99.90
52919;DHT22;38793;52.690;6.812;2024-01-25T09:35:03;6.70;99.90
52919;DHT22;38793;52.690;6.812;2024-01-25T09:37:29;6.90;99.90
52919;DHT22;38793;52.690;6.812;2024-01-25T09:39:55;7.10;99.90
52919;DHT22;38793;52.690;6.812;2024-01-25T09:42:20;7.20;99.90
52919;DHT22;38793;52.690;6.812;2024-01-25T09:44:46;7.30;99.90
52919;DHT22;38793;52.690;6.812;2024-01-25T09:47:12;7.40;99.90
52919;DHT22;38793;52.690;6.812;2024-01-25T09:49:39;7.40;99.90
52919;DHT22;38793;52.690;6.812;2024-01-25T09:52:05;7.30;99.90
52919;DHT22;38793;52.690;6.812;2024-01-25T09:54:38;7.10;99.90
52919;DHT22;38793;52.690;6.812;2024-01-25T09:57:08;7.00;99.90
52919;DHT22;38793;52.690;6.812;2024-01-25T09:59:38;6.80;99.90
52919;DHT22;38793;52.690;6.812;2024-01-25T10:02:03;6.70;99.90
52919;DHT22;38793;52.690;6.812;2024-01-25T10:04:29;6.60;99.90
52919;DHT22;38793;52.690;6.812;2024-01-25T10:06:58;6.60;99.90
52919;DHT22;38793;52.690;6.812;2024-01-25T10:09:24;6.50;99.90
52919;DHT22;38793;52.690;6.812;2024-01-25T10:11:49;6.40;99.90
52919;DHT22;38793;52.690;6.812;2024-01-25T10:14:15;6.40;99.90
52919;DHT22;38793;52.690;6.812;2024-01-25T10:16:40;6.40;99.90
52919;DHT22;38793;52.690;6.812;2024-01-25T10:19:07;6.40;99.90
52919;DHT22;38793;52.690;6.812;2024-01-25T10:21:36;6.50;99.90
52919;DHT22;38793;52.690;6.812;2024-01-25T10:24:01;6.60;99.90
52919;DHT22;38793;52.690;6.812;2024-01-25T10:26:28;6.70;99.90
52919;DHT22;38793;52.690;6.812;2024-01-25T10:28:57;6.90;99.90
52919;DHT22;38793;52.690;6.812;2024-01-25T10:31:24;7.00;99.90
52919;DHT22;38793;52.690;6.812;2024-01-25T10:33:53;7.20;99.90
52919;DHT22;38793;52.690;6.812;2024-01-25T10:36:21;7.50;99.90
52919;DHT22;38793;52.690;6.812;2024-01-25T10:38:48;7.90;99.90
52919;DHT22;38793;52.690;6.812;2024-01-25T10:41:19;8.10;99.90
52919;DHT22;38793;52.690;6.812;2024-01-25T10:43:45;8.20;99.90
52919;DHT22;38793;52.690;6.812;2024-01-25T10:46:11;8.30;99.90
52919;DHT22;38793;52.690;6.812;2024-01-25T10:48:37;8.30;99.90
52919;DHT22;38793;52.690;6.812;2024-01-25T10:51:04;8.30;99.90
52919;DHT22;38793;52.690;6.812;2024-01-25T10:53:34;8.30;99.90
52919;DHT22;38793;52.690;6.812;2024-01-25T10:56:02;8.40;99.90
52919;DHT22;38793;52.690;6.812;2024-01-25T10:58:33;8.50;99.90
52919;DHT22;38793;52.690;6.812;2024-01-25T11:01:01;8.60;99.90
52919;DHT22;38793;52.690;6.812;2024-01-25T11:03:29;8.80;99.90
52919;DHT22;38793;52.690;6.812;2024-01-25T11:06:09;9.00;99.90
52919;DHT22;38793;52.690;6.812;2024-01-25T11:08:35;9.30;99.90
52919;DHT22;38793;52.690;6.812;2024-01-25T11:11:06;9.70;99.90
52919;DHT22;38793;52.690;6.812;2024-01-25T11:13:35;10.00;99.90
52919;DHT22;38793;52.690;6.812;2024-01-25T11:16:27;10.20;99.90
52919;DHT22;38793;52.690;6.812;2024-01-25T11:18:57;10.30;99.90
52919;DHT22;38793;52.690;6.812;2024-01-25T11:21:44;10.40;99.90
52919;DHT22;38793;52.690;6.812;2024-01-25T11:26:43;10.40;99.90
52919;DHT22;38793;52.690;6.812;2024-01-25T11:29:12;10.50;99.90
52919;DHT22;38793;52.690;6.812;2024-01-25T11:31:40;10.60;99.90
52919;DHT22;38793;52.690;6.812;2024-01-25T11:34:05;10.80;99.90
52919;DHT22;38793;52.690;6.812;2024-01-25T11:36:31;10.90;99.90
52919;DHT22;38793;52.690;6.812;2024-01-25T11:38:57;10.90;99.90
52919;DHT22;38793;52.690;6.812;2024-01-25T11:41:23;11.00;99.90
52919;DHT22;38793;52.690;6.812;2024-01-25T11:43:49;11.10;99.90
52919;DHT22;38793;52.690;6.812;2024-01-25T11:46:15;11.30;99.90
52919;DHT22;38793;52.690;6.812;2024-01-25T11:48:42;11.30;99.90
52919;DHT22;38793;52.690;6.812;2024-01-25T11:51:11;11.30;99.90
52919;DHT22;38793;52.690;6.812;2024-01-25T11:53:37;11.30;99.90
52919;DHT22;38793;52.690;6.812;2024-01-25T11:56:04;11.30;99.90
52919;DHT22;38793;52.690;6.812;2024-01-25T11:58:32;11.20;99.90
52919;DHT22;38793;52.690;6.812;2024-01-25T12:00:57;11.40;99.90
52919;DHT22;38793;52.690;6.812;2024-01-25T12:03:23;11.20;99.90
52919;DHT22;38793;52.690;6.812;2024-01-25T12:05:49;11.00;99.90
52919;DHT22;38793;52.690;6.812;2024-01-25T12:08:17;10.90;99.90
52919;DHT22;38793;52.690;6.812;2024-01-25T12:10:42;10.70;99.90
52919;DHT22;38793;52.690;6.812;2024-01-25T12:13:08;10.40;99.90
52919;DHT22;38793;52.690;6.812;2024-01-25T12:15:35;10.30;99.90
52919;DHT22;38793;52.690;6.812;2024-01-25T12:18:01;10.20;99.90
52919;DHT22;38793;52.690;6.812;2024-01-25T12:20:28;10.10;99.90
52919;DHT22;38793;52.690;6.812;2024-01-25T12:22:54;9.90;99.90
52919;DHT22;38793;52.690;6.812;2024-01-25T12:25:20;9.70;99.90
52919;DHT22;38793;52.690;6.812;2024-01-25T12:27:47;9.60;99.90
52919;DHT22;38793;52.690;6.812;2024-01-25T12:30:15;9.50;99.90
52919;DHT22;38793;52.690;6.812;2024-01-25T12:32:41;9.40;99.90
52919;DHT22;38793;52.690;6.812;2024-01-25T12:35:06;9.30;99.90
52919;DHT22;38793;52.690;6.812;2024-01-25T12:37:34;9.30;99.90
52919;DHT22;38793;52.690;6.812;2024-01-25T12:40:00;9.30;99.90
52919;DHT22;38793;52.690;6.812;2024-01-25T12:42:26;9.40;99.90
52919;DHT22;38793;52.690;6.812;2024-01-25T12:44:53;9.40;99.90
52919;DHT22;38793;52.690;6.812;2024-01-25T12:47:21;9.40;99.90
52919;DHT22;38793;52.690;6.812;2024-01-25T12:49:47;9.30;99.90
52919;DHT22;38793;52.690;6.812;2024-01-25T12:52:14;9.30;99.90
52919;DHT22;38793;52.690;6.812;2024-01-25T12:54:41;9.30;99.90
52919;DHT22;38793;52.690;6.812;2024-01-25T12:57:07;9.30;99.90
52919;DHT22;38793;52.690;6.812;2024-01-25T12:59:33;9.20;99.90
52919;DHT22;38793;52.690;6.812;2024-01-25T13:01:59;9.20;99.90
52919;DHT22;38793;52.690;6.812;2024-01-25T13:04:25;9.20;99.90
52919;DHT22;38793;52.690;6.812;2024-01-25T13:06:54;9.20;99.90
52919;DHT22;38793;52.690;6.812;2024-01-25T13:09:21;9.20;99.90
52919;DHT22;38793;52.690;6.812;2024-01-25T13:11:47;9.20;99.90
52919;DHT22;38793;52.690;6.812;2024-01-25T13:14:12;9.20;99.90
52919;DHT22;38793;52.690;6.812;2024-01-25T13:16:38;9.20;99.90
52919;DHT22;38793;52.690;6.812;2024-01-25T13:19:03;9.50;99.90
52919;DHT22;38793;52.690;6.812;2024-01-25T13:21:29;10.00;99.90
52919;DHT22;38793;52.690;6.812;2024-01-25T13:23:55;10.60;99.90
52919;DHT22;38793;52.690;6.812;2024-01-25T13:26:21;11.00;99.90
52919;DHT22;38793;52.690;6.812;2024-01-25T13:28:47;11.10;99.90
52919;DHT22;38793;52.690;6.812;2024-01-25T13:31:12;11.20;99.90
52919;DHT22;38793;52.690;6.812;2024-01-25T13:33:38;11.30;99.90
52919;DHT22;38793;52.690;6.812;2024-01-25T13:36:04;11.30;99.90
52919;DHT22;38793;52.690;6.812;2024-01-25T13:38:34;11.20;99.90
52919;DHT22;38793;52.690;6.812;2024-01-25T13:41:00;10.90;99.90
52919;DHT22;38793;52.690;6.812;2024-01-25T13:43:25;10.70;99.90
52919;DHT22;38793;52.690;6.812;2024-01-25T13:45:51;10.50;99.90
52919;DHT22;38793;52.690;6.812;2024-01-25T13:48:17;10.30;99.90
52919;DHT22;38793;52.690;6.812;2024-01-25T13:50:44;10.00;99.90
52919;DHT22;38793;52.690;6.812;2024-01-25T13:53:10;9.80;99.90
52919;DHT22;38793;52.690;6.812;2024-01-25T13:55:36;9.60;99.90
52919;DHT22;38793;52.690;6.812;2024-01-25T13:58:01;9.50;99.90
52919;DHT22;38793;52.690;6.812;2024-01-25T14:00:27;9.40;99.90
52919;DHT22;38793;52.690;6.812;2024-01-25T14:02:53;9.30;99.90
52919;DHT22;38793;52.690;6.812;2024-01-25T14:05:19;9.30;99.90
52919;DHT22;38793;52.690;6.812;2024-01-25T14:07:45;9.30;99.90
52919;DHT22;38793;52.690;6.812;2024-01-25T14:10:10;9.30;99.90
52919;DHT22;38793;52.690;6.812;2024-01-25T14:12:36;9.30;99.90
52919;DHT22;38793;52.690;6.812;2024-01-25T14:15:02;9.40;99.90
52919;DHT22;38793;52.690;6.812;2024-01-25T14:17:27;9.50;99.90
52919;DHT22;38793;52.690;6.812;2024-01-25T14:19:53;9.50;99.90
52919;DHT22;38793;52.690;6.812;2024-01-25T14:22:19;9.60;99.90
52919;DHT22;38793;52.690;6.812;2024-01-25T14:24:46;9.60;99.90
52919;DHT22;38793;52.690;6.812;2024-01-25T14:27:11;9.60;99.90
52919;DHT22;38793;52.690;6.812;2024-01-25T14:29:37;9.50;99.90
52919;DHT22;38793;52.690;6.812;2024-01-25T14:32:03;9.40;99.90
52919;DHT22;38793;52.690;6.812;2024-01-25T14:34:28;9.30;99.90
52919;DHT22;38793;52.690;6.812;2024-01-25T14:36:54;9.20;99.90
52919;DHT22;38793;52.690;6.812;2024-01-25T14:39:20;9.10;99.90
52919;DHT22;38793;52.690;6.812;2024-01-25T14:41:45;8.90;99.90
52919;DHT22;38793;52.690;6.812;2024-01-25T14:44:12;8.80;99.90
52919;DHT22;38793;52.690;6.812;2024-01-25T14:46:37;8.80;99.90
52919;DHT22;38793;52.690;6.812;2024-01-25T14:49:06;8.70;99.90
52919;DHT22;38793;52.690;6.812;2024-01-25T14:51:32;8.60;99.90
52919;DHT22;38793;52.690;6.812;2024-01-25T14:53:57;8.60;99.90
52919;DHT22;38793;52.690;6.812;2024-01-25T14:56:23;8.50;99.90
52919;DHT22;38793;52.690;6.812;2024-01-25T14:58:48;8.50;99.90
52919;DHT22;38793;52.690;6.812;2024-01-25T15:01:15;8.40;99.90
52919;DHT22;38793;52.690;6.812;2024-01-25T15:03:46;8.30;99.90
52919;DHT22;38793;52.690;6.812;2024-01-25T15:06:12;8.30;99.90
52919;DHT22;38793;52.690;6.812;2024-01-25T15:08:38;8.20;99.90
52919;DHT22;38793;52.690;6.812;2024-01-25T15:11:04;8.20;99.90
52919;DHT22;38793;52.690;6.812;2024-01-25T15:13:30;8.20;99.90
52919;DHT22;38793;52.690;6.812;2024-01-25T15:15:56;8.20;99.90
52919;DHT22;38793;52.690;6.812;2024-01-25T15:18:21;8.10;99.90
52919;DHT22;38793;52.690;6.812;2024-01-25T15:20:47;8.10;99.90
52919;DHT22;38793;52.690;6.812;2024-01-25T15:23:13;8.00;99.90
52919;DHT22;38793;52.690;6.812;2024-01-25T15:25:39;8.00;99.90
52919;DHT22;38793;52.690;6.812;2024-01-25T15:28:05;8.00;99.90
52919;DHT22;38793;52.690;6.812;2024-01-25T15:30:30;8.00;99.90
52919;DHT22;38793;52.690;6.812;2024-01-25T15:32:56;7.90;99.90
52919;DHT22;38793;52.690;6.812;2024-01-25T15:35:22;7.90;99.90
52919;DHT22;38793;52.690;6.812;2024-01-25T15:37:48;7.90;99.90
52919;DHT22;38793;52.690;6.812;2024-01-25T15:40:14;7.90;99.90